createdAt,value
2017-09-22T00:00:04.663Z,14.87
2017-09-22T00:02:30.637Z,14.20
2017-09-22T00:04:56.585Z,14.60
2017-09-22T00:07:22.658Z,14.03
2017-09-22T00:09:48.610Z,14.33
2017-09-22T00:12:14.557Z,14.20
2017-09-22T00:14:40.614Z,14.23
2017-09-22T00:17:06.549Z,14.90
2017-09-22T00:19:32.492Z,12.60
2017-09-22T00:21:58.472Z,13.30
2017-09-22T00:24:25.188Z,13.50
2017-09-22T00:26:51.137Z,12.63
2017-09-22T00:29:17.077Z,13.50
2017-09-22T00:31:43.048Z,12.47
2017-09-22T00:34:08.985Z,14.43
2017-09-22T00:36:35.731Z,15.47
2017-09-22T00:39:01.686Z,14.63
2017-09-22T00:41:27.651Z,13.07
2017-09-22T00:43:53.633Z,13.00
2017-09-22T00:46:19.610Z,13.40
2017-09-22T00:48:45.582Z,11.93
2017-09-22T00:51:11.561Z,14.47
2017-09-22T00:53:37.525Z,14.77
2017-09-22T00:56:04.265Z,13.30
2017-09-22T00:58:30.283Z,12.93
2017-09-22T01:00:56.239Z,14.47
2017-09-22T01:03:22.241Z,14.30
2017-09-22T01:05:48.186Z,16.13
2017-09-22T01:08:14.162Z,14.90
2017-09-22T01:10:40.165Z,14.13
2017-09-22T01:13:06.189Z,13.43
2017-09-22T01:15:32.141Z,13.23
2017-09-22T01:17:58.129Z,13.67
2017-09-22T01:20:24.848Z,12.97
2017-09-22T01:22:51.533Z,14.40
2017-09-22T01:25:17.491Z,13.47
2017-09-22T01:27:43.473Z,14.03
2017-09-22T01:30:10.177Z,14.57
2017-09-22T01:32:36.166Z,14.10
2017-09-22T01:35:02.121Z,12.17
2017-09-22T01:37:28.861Z,12.90
2017-09-22T01:39:55.553Z,12.83
2017-09-22T01:42:21.501Z,13.60
2017-09-22T01:44:47.477Z,12.23
2017-09-22T01:47:13.430Z,12.77
2017-09-22T01:49:39.420Z,12.20
2017-09-22T01:52:05.376Z,12.30
2017-09-22T01:54:31.362Z,13.40
2017-09-22T01:56:57.317Z,12.50
2017-09-22T01:59:23.302Z,12.83
2017-09-22T02:01:49.289Z,12.87
2017-09-22T02:04:15.242Z,13.00
2017-09-22T02:06:41.217Z,13.33
2017-09-22T02:09:07.202Z,13.43
2017-09-22T02:11:33.157Z,13.40
2017-09-22T02:13:59.110Z,13.93
2017-09-22T02:16:25.125Z,14.20
2017-09-22T02:18:51.094Z,14.73
2017-09-22T02:21:17.046Z,15.27
2017-09-22T02:23:43.025Z,13.60
2017-09-22T02:26:09.759Z,12.77
2017-09-22T02:28:35.730Z,14.60
2017-09-22T02:31:01.686Z,14.40
2017-09-22T02:33:27.669Z,14.60
2017-09-22T02:35:54.366Z,15.27
2017-09-22T02:38:20.337Z,15.47
2017-09-22T02:40:46.289Z,16.73
2017-09-22T02:43:12.282Z,16.03
2017-09-22T02:45:38.276Z,17.27
2017-09-22T02:48:04.230Z,15.03
2017-09-22T02:50:30.257Z,15.63
2017-09-22T02:52:56.959Z,16.50
2017-09-22T02:55:22.930Z,14.60
2017-09-22T02:57:48.917Z,15.57
2017-09-22T03:00:14.882Z,16.80
2017-09-22T03:02:40.882Z,15.23
2017-09-22T03:05:06.850Z,15.03
2017-09-22T03:07:32.804Z,16.10
2017-09-22T03:09:58.797Z,16.53
2017-09-22T03:12:24.789Z,15.43
2017-09-22T03:14:50.753Z,14.90
2017-09-22T03:17:17.466Z,14.80
2017-09-22T03:19:44.198Z,14.70
2017-09-22T03:22:10.902Z,15.57
2017-09-22T03:24:36.890Z,15.27
2017-09-22T03:27:02.881Z,16.50
2017-09-22T03:29:28.838Z,14.57
2017-09-22T03:31:54.797Z,14.87
2017-09-22T03:34:20.806Z,15.77
2017-09-22T03:36:46.777Z,17.30
2017-09-22T03:39:13.466Z,15.30
2017-09-22T03:41:39.488Z,17.30
2017-09-22T03:44:05.486Z,16.90
2017-09-22T03:46:31.441Z,16.03
2017-09-22T03:48:57.441Z,17.67
2017-09-22T03:51:24.181Z,15.60
2017-09-22T03:53:50.169Z,16.87
2017-09-22T03:56:16.898Z,17.07
2017-09-22T03:58:43.613Z,16.77
2017-09-22T04:01:10.318Z,15.50
2017-09-22T04:03:36.330Z,17.33
2017-09-22T04:06:02.326Z,17.57
2017-09-22T04:08:28.277Z,19.40
2017-09-22T04:10:54.997Z,18.60
2017-09-22T04:13:21.790Z,16.60
2017-09-22T04:15:47.741Z,16.70
2017-09-22T04:18:13.698Z,16.70
2017-09-22T04:20:39.702Z,18.07
2017-09-22T04:23:05.670Z,17.77
2017-09-22T04:25:31.630Z,19.70
2017-09-22T04:27:57.659Z,19.30
2017-09-22T04:30:24.367Z,16.53
2017-09-22T04:32:50.358Z,18.67
2017-09-22T04:35:16.346Z,19.20
2017-09-22T04:37:42.353Z,19.80
2017-09-22T04:40:08.349Z,18.20
2017-09-22T04:42:34.301Z,19.10
2017-09-22T04:45:00.258Z,19.83
2017-09-22T04:47:27.005Z,18.97
2017-09-22T04:49:52.964Z,20.53
2017-09-22T04:52:18.962Z,17.63
2017-09-22T04:54:44.949Z,19.17
2017-09-22T04:57:10.901Z,17.53
2017-09-22T04:59:37.649Z,21.93
2017-09-22T05:02:03.614Z,19.63
2017-09-22T05:04:29.618Z,20.50
2017-09-22T05:06:55.577Z,20.27
2017-09-22T05:09:21.531Z,18.80
2017-09-22T05:11:47.530Z,17.87
2017-09-22T05:14:13.514Z,19.43
2017-09-22T05:16:39.528Z,18.83
2017-09-22T05:19:05.534Z,18.70
2017-09-22T05:21:31.497Z,19.40
2017-09-22T05:23:57.458Z,20.10
2017-09-22T05:26:23.462Z,18.93
2017-09-22T05:28:49.413Z,20.37
2017-09-22T05:31:15.366Z,20.30
2017-09-22T05:33:41.357Z,20.93
2017-09-22T05:36:08.072Z,20.30
2017-09-22T05:38:34.814Z,20.53
2017-09-22T05:41:01.529Z,21.50
2017-09-22T05:43:28.237Z,20.67
2017-09-22T05:45:54.242Z,20.30
2017-09-22T05:48:20.242Z,20.37
2017-09-22T05:50:46.198Z,21.13
2017-09-22T05:53:12.197Z,20.87
2017-09-22T05:55:38.929Z,20.20
2017-09-22T05:58:04.937Z,20.97
2017-09-22T06:00:30.922Z,21.70
2017-09-22T06:02:57.630Z,24.40
2017-09-22T06:05:23.631Z,22.17
2017-09-22T06:07:49.597Z,24.13
2017-09-22T06:10:15.578Z,23.57
2017-09-22T06:12:42.310Z,21.67
2017-09-22T06:15:09.009Z,23.80
2017-09-22T06:17:34.993Z,24.87
2017-09-22T06:20:00.934Z,24.57
2017-09-22T06:22:26.917Z,22.80
2017-09-22T06:24:52.897Z,22.60
2017-09-22T06:27:18.845Z,25.53
2017-09-22T06:29:44.845Z,23.87
2017-09-22T06:32:10.802Z,26.53
2017-09-22T06:34:36.797Z,25.50
2017-09-22T06:37:03.546Z,25.07
2017-09-22T06:39:29.498Z,26.67
2017-09-22T06:41:55.487Z,28.10
2017-09-22T06:44:21.429Z,30.10
2017-09-22T06:46:47.445Z,30.13
2017-09-22T06:49:13.393Z,25.83
2017-09-22T06:51:39.351Z,27.07
2017-09-22T06:54:05.372Z,27.90
2017-09-22T06:56:32.069Z,25.33
2017-09-22T06:58:58.017Z,26.70
2017-09-22T07:01:24.737Z,25.40
2017-09-22T07:03:51.454Z,25.40
2017-09-22T07:06:17.433Z,25.57
2017-09-22T07:08:43.425Z,24.63
2017-09-22T07:11:09.394Z,25.43
2017-09-22T07:13:36.158Z,26.23
2017-09-22T07:16:02.138Z,26.90
2017-09-22T07:18:28.133Z,26.97
2017-09-22T07:20:54.833Z,27.07
2017-09-22T07:23:20.789Z,26.97
2017-09-22T07:25:46.774Z,27.50
2017-09-22T07:28:13.470Z,28.00
2017-09-22T07:30:39.470Z,24.13
2017-09-22T07:33:06.194Z,27.47
2017-09-22T07:35:32.143Z,25.43
2017-09-22T07:37:58.868Z,26.43
2017-09-22T07:40:25.561Z,27.93
2017-09-22T07:42:51.554Z,26.43
2017-09-22T07:45:17.497Z,27.40
2017-09-22T07:47:43.482Z,27.10
2017-09-22T07:50:09.446Z,25.43
2017-09-22T07:52:35.397Z,28.77
2017-09-22T07:55:01.379Z,26.03
2017-09-22T07:57:27.362Z,26.40
2017-09-22T07:59:53.354Z,25.77
2017-09-22T08:02:20.054Z,26.87
2017-09-22T08:04:45.996Z,27.80
2017-09-22T08:07:12.726Z,25.73
2017-09-22T08:09:38.699Z,28.17
2017-09-22T08:12:04.750Z,26.80
2017-09-22T08:14:30.746Z,26.47
2017-09-22T08:16:57.439Z,28.70
2017-09-22T08:19:23.398Z,28.13
2017-09-22T08:21:49.385Z,28.77
2017-09-22T08:24:16.110Z,25.07
2017-09-22T08:26:42.814Z,24.43
2017-09-22T08:29:08.817Z,26.90
2017-09-22T08:31:34.765Z,27.63
2017-09-22T08:34:00.713Z,25.77
2017-09-22T08:36:27.457Z,26.20
2017-09-22T08:38:53.408Z,25.27
2017-09-22T08:41:19.389Z,26.60
2017-09-22T08:43:45.349Z,25.13
2017-09-22T08:46:11.297Z,26.40
2017-09-22T08:48:37.288Z,26.73
2017-09-22T08:51:03.229Z,26.03
2017-09-22T08:53:29.910Z,25.70
2017-09-22T08:55:55.941Z,26.43
2017-09-22T08:58:21.884Z,26.67
2017-09-22T09:00:48.569Z,27.10
2017-09-22T09:03:14.594Z,27.47
2017-09-22T09:05:40.585Z,27.87
2017-09-22T09:08:06.538Z,25.40
2017-09-22T09:10:32.510Z,24.97
2017-09-22T09:12:58.509Z,23.13
2017-09-22T09:15:24.477Z,25.37
2017-09-22T09:17:50.449Z,26.83
2017-09-22T09:20:16.434Z,23.93
2017-09-22T09:22:42.381Z,23.33
2017-09-22T09:25:09.139Z,22.83
2017-09-22T09:27:35.103Z,23.57
2017-09-22T09:30:01.797Z,23.83
2017-09-22T09:32:27.781Z,21.80
2017-09-22T09:34:53.746Z,21.17
2017-09-22T09:37:20.497Z,20.43
2017-09-22T09:39:46.458Z,15.03
2017-09-22T09:42:12.426Z,13.20
2017-09-22T09:44:38.435Z,12.33
2017-09-22T09:47:04.402Z,12.80
2017-09-22T09:49:31.133Z,11.80
2017-09-22T09:51:57.840Z,12.17
2017-09-22T09:54:23.785Z,14.00
2017-09-22T09:56:49.789Z,10.30
2017-09-22T09:59:15.778Z,11.90
2017-09-22T10:01:42.485Z,10.20
2017-09-22T10:04:08.885Z,14.37
2017-09-22T10:06:34.838Z,13.10
2017-09-22T10:09:01.526Z,11.63
2017-09-22T10:11:27.554Z,11.07
2017-09-22T10:13:53.509Z,13.93
2017-09-22T10:16:19.462Z,14.80
2017-09-22T10:18:45.450Z,12.40
2017-09-22T10:21:11.405Z,14.20
2017-09-22T10:23:38.154Z,13.63
2017-09-22T10:26:04.101Z,13.40
2017-09-22T10:28:30.048Z,15.20
2017-09-22T10:30:56.777Z,15.97
2017-09-22T10:33:23.515Z,15.70
2017-09-22T10:35:49.461Z,16.23
2017-09-22T10:38:15.421Z,17.70
2017-09-22T10:40:41.401Z,16.00
2017-09-22T10:43:07.358Z,15.73
2017-09-22T10:45:33.350Z,13.83
2017-09-22T10:47:59.333Z,13.83
2017-09-22T10:50:25.290Z,15.43
2017-09-22T10:52:51.282Z,14.27
2017-09-22T10:55:17.234Z,12.03
2017-09-22T10:57:43.190Z,12.30
2017-09-22T11:00:09.183Z,11.90
2017-09-22T11:02:35.206Z,11.83
2017-09-22T11:05:01.157Z,13.30
2017-09-22T11:07:27.162Z,11.50
2017-09-22T11:09:53.110Z,11.50
2017-09-22T11:12:19.842Z,10.90
2017-09-22T11:14:45.830Z,9.23
2017-09-22T11:17:12.531Z,7.60
2017-09-22T11:19:38.517Z,6.90
2017-09-22T11:22:04.476Z,6.67
2017-09-22T11:24:31.234Z,6.77
2017-09-22T11:26:57.177Z,7.43
2017-09-22T11:29:23.133Z,6.33
2017-09-22T11:31:49.038Z,6.77
2017-09-22T11:34:14.957Z,8.60
2017-09-22T11:36:40.907Z,7.83
2017-09-22T11:39:06.902Z,8.77
2017-09-22T11:41:32.871Z,9.97
2017-09-22T11:43:58.914Z,10.07
2017-09-22T11:46:24.882Z,9.70
2017-09-22T11:48:51.574Z,8.50
2017-09-22T11:51:17.566Z,9.23
2017-09-22T11:53:43.513Z,9.03
2017-09-22T11:56:10.202Z,8.17
2017-09-22T11:58:36.181Z,8.97
2017-09-22T12:01:02.195Z,9.73
2017-09-22T12:03:28.192Z,9.20
2017-09-22T12:05:54.149Z,9.80
2017-09-22T12:08:20.118Z,10.57
2017-09-22T12:10:46.057Z,18.80
2017-09-22T12:13:12.041Z,11.80
2017-09-22T12:15:37.994Z,12.47
2017-09-22T12:18:03.987Z,11.30
2017-09-22T12:20:30.011Z,9.77
2017-09-22T12:22:55.963Z,8.10
2017-09-22T12:25:22.649Z,8.27
2017-09-22T12:27:48.653Z,7.73
2017-09-22T12:30:14.618Z,8.60
2017-09-22T12:32:40.565Z,9.17
2017-09-22T12:35:06.550Z,9.80
2017-09-22T12:37:32.587Z,8.80
2017-09-22T12:39:58.546Z,8.53
2017-09-22T12:42:24.494Z,9.10
2017-09-22T12:44:50.497Z,8.33
2017-09-22T12:47:16.450Z,8.50
2017-09-22T12:49:43.145Z,8.27
2017-09-22T12:52:09.129Z,9.70
2017-09-22T12:54:35.133Z,9.13
2017-09-22T12:57:01.091Z,10.20
2017-09-22T12:59:27.798Z,7.60
2017-09-22T13:01:53.848Z,8.40
2017-09-22T13:04:19.843Z,10.97
2017-09-22T13:06:46.630Z,10.73
2017-09-22T13:09:12.598Z,8.05
2017-09-22T13:11:38.594Z,8.17
2017-09-22T13:14:05.354Z,9.90
2017-09-22T13:16:31.313Z,9.60
2017-09-22T13:18:57.315Z,8.90
2017-09-22T13:21:23.310Z,9.17
2017-09-22T13:23:49.266Z,10.07
2017-09-22T13:26:15.258Z,10.03
2017-09-22T13:28:42.010Z,7.53
2017-09-22T13:31:07.965Z,8.47
2017-09-22T13:33:33.934Z,7.80
2017-09-22T13:35:59.943Z,8.70
2017-09-22T13:38:26.766Z,6.83
2017-09-22T13:40:52.727Z,6.77
2017-09-22T13:43:18.714Z,5.90
2017-09-22T13:45:45.447Z,8.00
2017-09-22T13:48:11.454Z,7.80
2017-09-22T13:50:37.409Z,8.37
2017-09-22T13:53:04.102Z,7.10
2017-09-22T13:55:30.106Z,6.30
2017-09-22T13:57:56.070Z,8.10
2017-09-22T14:00:22.031Z,7.53
2017-09-22T14:02:48.063Z,7.33
2017-09-22T14:05:14.765Z,5.90
2017-09-22T14:07:40.768Z,6.37
2017-09-22T14:10:06.730Z,5.50
2017-09-22T14:12:32.722Z,5.63
2017-09-22T14:14:58.725Z,5.00
2017-09-22T14:17:24.698Z,6.33
2017-09-22T14:19:50.654Z,5.80
2017-09-22T14:22:16.653Z,5.63
2017-09-22T14:24:42.613Z,5.70
2017-09-22T14:27:08.574Z,6.60
2017-09-22T14:29:34.557Z,5.83
2017-09-22T14:32:01.312Z,5.60
2017-09-22T14:34:27.990Z,7.20
2017-09-22T14:36:53.989Z,7.40
2017-09-22T14:39:19.938Z,7.73
2017-09-22T14:41:46.641Z,7.47
2017-09-22T14:44:12.649Z,6.00
2017-09-22T14:46:38.616Z,6.80
2017-09-22T14:49:04.609Z,6.33
2017-09-22T14:51:30.618Z,6.70
2017-09-22T14:53:56.582Z,7.07
2017-09-22T14:56:22.578Z,7.10
2017-09-22T14:58:48.544Z,7.23
2017-09-22T15:01:14.498Z,6.80
2017-09-22T15:03:40.485Z,7.20
2017-09-22T15:06:06.459Z,8.33
2017-09-22T15:08:32.467Z,8.27
2017-09-22T15:10:58.421Z,7.37
2017-09-22T15:13:24.397Z,7.50
2017-09-22T15:15:50.438Z,7.07
2017-09-22T15:18:16.423Z,8.50
2017-09-22T15:20:42.369Z,8.20
2017-09-22T15:23:08.357Z,9.00
2017-09-22T15:25:34.404Z,6.80
2017-09-22T15:28:01.210Z,7.60
2017-09-22T15:30:27.173Z,6.87
2017-09-22T15:32:53.166Z,7.83
2017-09-22T15:35:19.118Z,7.20
2017-09-22T15:37:45.081Z,7.60
2017-09-22T15:40:11.077Z,7.40
2017-09-22T15:42:37.045Z,6.80
2017-09-22T15:45:02.994Z,7.50
2017-09-22T15:47:29.734Z,6.67
2017-09-22T15:49:55.702Z,7.13
2017-09-22T15:52:21.705Z,7.70
2017-09-22T15:54:47.674Z,8.10
2017-09-22T15:57:13.622Z,7.80
2017-09-22T15:59:39.617Z,8.03
2017-09-22T16:02:05.598Z,8.80
2017-09-22T16:04:32.341Z,7.67
2017-09-22T16:06:59.074Z,8.20
2017-09-22T16:09:25.043Z,9.37
2017-09-22T16:11:51.046Z,9.23
2017-09-22T16:14:17.091Z,10.00
2017-09-22T16:16:43.789Z,13.17
2017-09-22T16:19:09.774Z,8.67
2017-09-22T16:21:35.735Z,10.57
2017-09-22T16:24:02.461Z,11.47
2017-09-22T16:26:29.215Z,11.57
2017-09-22T16:28:55.171Z,9.30
2017-09-22T16:31:21.194Z,10.50
2017-09-22T16:33:47.959Z,10.10
2017-09-22T16:36:14.271Z,9.47
2017-09-22T16:38:40.226Z,10.60
2017-09-22T16:41:06.214Z,8.07
2017-09-22T16:43:32.174Z,8.67
2017-09-22T16:45:58.121Z,8.73
2017-09-22T16:48:24.148Z,9.20
2017-09-22T16:50:50.858Z,8.93
2017-09-22T16:53:16.847Z,9.47
2017-09-22T16:55:42.843Z,8.00
2017-09-22T16:58:08.819Z,8.73
2017-09-22T17:00:34.822Z,10.80
2017-09-22T17:03:00.790Z,10.17
2017-09-22T17:05:26.758Z,10.33
2017-09-22T17:07:53.505Z,11.47
2017-09-22T17:10:19.490Z,9.63
2017-09-22T17:12:46.260Z,9.83
2017-09-22T17:15:12.230Z,10.10
2017-09-22T17:17:39.014Z,10.53
2017-09-22T17:20:04.978Z,10.07
2017-09-22T17:22:30.942Z,11.60
2017-09-22T17:24:56.930Z,10.20
2017-09-22T17:27:22.893Z,11.83
2017-09-22T17:29:49.647Z,11.40
2017-09-22T17:32:15.688Z,11.90
2017-09-22T17:34:41.664Z,11.10
2017-09-22T17:37:07.628Z,10.83
2017-09-22T17:39:34.378Z,9.53
2017-09-22T17:42:00.352Z,9.33
2017-09-22T17:44:26.358Z,9.93
2017-09-22T17:46:52.317Z,10.80
2017-09-22T17:49:18.278Z,9.53
2017-09-22T17:51:44.318Z,10.70
2017-09-22T17:54:11.410Z,10.10
2017-09-22T17:56:37.378Z,10.80
2017-09-22T17:59:03.723Z,9.90
2017-09-22T18:01:29.757Z,12.43
2017-09-22T18:03:55.780Z,10.63
2017-09-22T18:06:22.013Z,11.47
2017-09-22T18:08:48.053Z,12.27
2017-09-22T18:11:14.187Z,10.70
2017-09-22T18:13:40.446Z,10.27
2017-09-22T18:16:06.414Z,11.50
2017-09-22T18:18:32.377Z,10.67
2017-09-22T18:20:58.378Z,11.17
2017-09-22T18:23:24.333Z,11.97
2017-09-22T18:25:50.322Z,12.70
2017-09-22T18:28:16.329Z,11.37
2017-09-22T18:30:42.293Z,11.77
2017-09-22T18:33:09.033Z,12.37
2017-09-22T18:35:35.028Z,13.40
2017-09-22T18:38:01.728Z,12.70
2017-09-22T18:40:27.762Z,12.20
2017-09-22T18:42:54.505Z,13.30
2017-09-22T18:45:20.542Z,12.63
2017-09-22T18:47:46.518Z,12.50
2017-09-22T18:50:13.281Z,10.90
2017-09-22T18:52:39.238Z,11.60
2017-09-22T18:55:05.950Z,12.63
2017-09-22T18:57:31.950Z,16.67
2017-09-22T18:59:58.947Z,14.80
2017-09-22T19:02:24.921Z,15.20
2017-09-22T19:04:51.659Z,17.20
2017-09-22T19:07:17.717Z,21.10
2017-09-22T19:09:43.792Z,18.27
2017-09-22T19:12:09.855Z,18.77
2017-09-22T19:14:35.862Z,18.10
2017-09-22T19:17:02.614Z,16.50
2017-09-22T19:19:28.662Z,15.00
2017-09-22T19:21:54.853Z,15.43
2017-09-22T19:24:20.814Z,16.33
2017-09-22T19:26:46.802Z,15.20
2017-09-22T19:29:12.800Z,15.03
2017-09-22T19:31:38.802Z,14.17
2017-09-22T19:34:04.812Z,15.50
2017-09-22T19:36:30.864Z,17.13
2017-09-22T19:38:56.828Z,15.70
2017-09-22T19:41:22.798Z,15.00
2017-09-22T19:43:49.550Z,15.60
2017-09-22T19:46:15.592Z,15.60
2017-09-22T19:48:41.579Z,13.77
2017-09-22T19:51:07.575Z,13.97
2017-09-22T19:53:33.538Z,14.40
2017-09-22T19:56:01.137Z,14.27
2017-09-22T19:58:27.162Z,14.93
2017-09-22T20:00:53.123Z,16.87
2017-09-22T20:03:19.894Z,15.63
2017-09-22T20:05:45.887Z,16.40
2017-09-22T20:08:11.905Z,16.33
2017-09-22T20:10:37.898Z,16.07
2017-09-22T20:13:03.921Z,15.40
2017-09-22T20:15:29.942Z,16.57
2017-09-22T20:17:56.619Z,16.87
2017-09-22T20:20:23.560Z,15.73
2017-09-22T20:22:49.570Z,15.83
2017-09-22T20:25:15.681Z,15.07
2017-09-22T20:27:41.701Z,16.27
2017-09-22T20:30:07.662Z,13.40
2017-09-22T20:32:33.796Z,15.60
2017-09-22T20:35:01.834Z,14.73
2017-09-22T20:37:29.778Z,14.00
2017-09-22T20:39:59.150Z,13.93
2017-09-22T20:42:25.813Z,14.47
2017-09-22T20:44:52.148Z,13.83
2017-09-22T20:47:18.886Z,14.43
2017-09-22T20:49:45.015Z,13.33
2017-09-22T20:54:53.036Z,14.10
2017-09-22T20:57:18.997Z,13.00
2017-09-22T20:59:44.977Z,13.33
2017-09-22T21:02:10.974Z,13.30
2017-09-22T21:04:36.940Z,13.03
2017-09-22T21:07:02.975Z,13.43
2017-09-22T21:09:28.947Z,13.80
2017-09-22T21:11:54.957Z,15.60
2017-09-22T21:14:20.970Z,13.10
2017-09-22T21:16:46.947Z,13.93
2017-09-22T21:19:13.702Z,14.90
2017-09-22T21:21:39.666Z,15.40
2017-09-22T21:24:05.626Z,14.70
2017-09-22T21:26:31.640Z,14.53
2017-09-22T21:28:57.602Z,16.00
2017-09-22T21:31:24.309Z,17.00
2017-09-22T21:33:50.308Z,17.70
2017-09-22T21:36:16.289Z,16.80
2017-09-22T21:38:42.282Z,17.50
2017-09-22T21:41:08.234Z,18.10
2017-09-22T21:43:34.226Z,19.30
2017-09-22T21:46:00.198Z,18.43
2017-09-22T21:48:26.197Z,17.77
2017-09-22T21:50:52.914Z,18.37
2017-09-22T21:53:19.637Z,18.77
2017-09-22T21:55:46.412Z,17.77
2017-09-22T21:58:12.366Z,18.27
2017-09-22T22:00:38.315Z,18.70
2017-09-22T22:06:14.630Z,20.47
2017-09-22T22:08:41.390Z,18.50
2017-09-22T22:11:07.405Z,19.97
2017-09-22T22:13:33.433Z,18.73
2017-09-22T22:15:59.394Z,18.60
2017-09-22T22:18:26.101Z,19.30
2017-09-22T22:20:52.135Z,19.70
2017-09-22T22:23:18.866Z,18.23
2017-09-22T22:25:44.902Z,19.73
2017-09-22T22:28:10.853Z,20.17
2017-09-22T22:30:36.853Z,18.73
2017-09-22T22:33:02.812Z,18.03
2017-09-22T22:35:28.813Z,19.43
2017-09-22T22:37:54.834Z,19.93
2017-09-22T22:40:20.818Z,19.67
2017-09-22T22:42:47.582Z,18.03
2017-09-22T22:45:13.547Z,19.20
2017-09-22T22:47:40.293Z,19.20
2017-09-22T22:50:06.253Z,18.20
2017-09-22T22:52:32.223Z,19.63
2017-09-22T22:54:58.213Z,18.90
2017-09-22T22:57:24.176Z,18.33
2017-09-22T22:59:50.210Z,19.00
2017-09-22T23:02:16.207Z,17.67
2017-09-22T23:04:42.182Z,19.40
2017-09-22T23:07:08.185Z,19.87
2017-09-22T23:09:34.138Z,18.43
2017-09-22T23:12:00.134Z,19.17
2017-09-22T23:14:26.121Z,20.40
2017-09-22T23:16:52.113Z,17.87
2017-09-22T23:19:18.137Z,19.33
2017-09-22T23:21:44.106Z,17.80
2017-09-22T23:24:10.098Z,18.00
2017-09-22T23:26:36.805Z,18.90
2017-09-22T23:29:02.756Z,17.90
2017-09-22T23:31:28.754Z,18.33
2017-09-22T23:33:55.461Z,17.00
2017-09-22T23:36:22.173Z,17.47
2017-09-22T23:38:48.194Z,16.87
2017-09-22T23:41:14.149Z,18.27
2017-09-22T23:43:40.142Z,18.37
2017-09-22T23:46:06.142Z,17.43
2017-09-22T23:48:32.102Z,16.80
2017-09-22T23:50:58.057Z,18.13
2017-09-22T23:53:24.073Z,17.60
2017-09-22T23:55:50.047Z,16.60
2017-09-22T23:58:16.051Z,18.33
